Time;durP1;ratioP1;P1;durP2;ratioP2;P2;SDS_P1;SDS_P2;PMS_P1;PMS_P2;Temp;Humidity;BMP_temperature;BMP_pressure;BME280_temperature;BME280_humidity;BME280_pressure;Samples;Min_cycle;Max_cycle;Signal;HPM_P1;HPM_P2
2021/07/30 00:01:30;;;;;;;25.75;7.75;;;16.90;96.90;;;;;;5009200;28;20287;-65
2021/07/30 00:03:58;;;;;;;23.55;7.63;;;16.90;97.10;;;;;;5006785;28;20681;-67
2021/07/30 00:06:25;;;;;;;20.02;7.95;;;16.90;97.20;;;;;;4991252;28;20234;-66
2021/07/30 00:08:52;;;;;;;22.88;7.60;;;16.90;97.30;;;;;;5008782;28;20251;-69
2021/07/30 00:11:19;;;;;;;21.92;8.43;;;16.90;97.40;;;;;;5008880;28;20812;-68
2021/07/30 00:13:45;;;;;;;22.05;8.02;;;16.90;97.50;;;;;;5008053;28;20303;-66
2021/07/30 00:16:12;;;;;;;25.73;8.00;;;16.80;97.60;;;;;;5007836;28;20196;-68
2021/07/30 00:18:39;;;;;;;24.40;8.35;;;16.80;97.70;;;;;;4991573;28;20208;-69
2021/07/30 00:21:07;;;;;;;22.58;7.97;;;16.80;97.90;;;;;;5008253;28;20205;-69
2021/07/30 00:23:34;;;;;;;19.45;7.75;;;16.80;97.90;;;;;;4988820;28;20207;-68
2021/07/30 00:26:01;;;;;;;18.80;7.50;;;16.80;98.00;;;;;;5009303;28;20282;-68
2021/07/30 00:28:28;;;;;;;18.25;7.78;;;16.70;98.10;;;;;;5010956;28;20204;-69
2021/07/30 00:30:55;;;;;;;28.67;7.75;;;16.70;98.30;;;;;;5013536;28;20212;-68
2021/07/30 00:33:22;;;;;;;25.60;8.10;;;16.70;98.30;;;;;;5012045;28;20196;-68
2021/07/30 00:35:49;;;;;;;26.58;8.30;;;16.70;98.40;;;;;;5010616;28;20208;-69
2021/07/30 00:38:17;;;;;;;17.50;7.30;;;16.70;98.50;;;;;;5010770;28;20564;-70
2021/07/30 00:40:44;;;;;;;26.80;8.23;;;16.70;98.60;;;;;;5012932;28;20203;-67
2021/07/30 00:43:11;;;;;;;21.10;7.25;;;16.70;98.70;;;;;;5013659;28;20220;-67
2021/07/30 00:45:38;;;;;;;28.58;7.88;;;16.60;98.70;;;;;;5013591;28;20232;-68
2021/07/30 00:48:06;;;;;;;24.77;7.18;;;16.60;98.80;;;;;;5013624;28;20205;-69
2021/07/30 00:50:33;;;;;;;23.23;7.85;;;16.60;98.90;;;;;;5011985;28;20240;-67
2021/07/30 00:53:00;;;;;;;22.20;7.63;;;16.60;99.00;;;;;;5013551;28;20208;-69
2021/07/30 00:55:28;;;;;;;26.15;7.90;;;16.60;99.10;;;;;;5012196;28;20216;-68
2021/07/30 00:57:55;;;;;;;19.90;6.65;;;16.50;99.20;;;;;;5015105;28;20203;-66
2021/07/30 01:00:22;;;;;;;23.58;7.40;;;16.50;99.30;;;;;;5011734;28;20258;-68
2021/07/30 01:02:50;;;;;;;19.63;7.22;;;16.50;99.30;;;;;;5010168;28;20209;-68
2021/07/30 01:05:17;;;;;;;23.85;7.68;;;16.50;99.40;;;;;;5011562;28;20224;-67
2021/07/30 01:07:44;;;;;;;25.02;7.70;;;16.40;99.50;;;;;;5011527;28;20692;-68
2021/07/30 01:10:11;;;;;;;28.95;7.15;;;16.40;99.50;;;;;;5009237;28;20216;-68
2021/07/30 01:12:40;;;;;;;20.30;6.38;;;16.40;99.60;;;;;;5002573;28;20390;-70
2021/07/30 01:15:07;;;;;;;21.63;6.90;;;16.40;99.70;;;;;;5012563;28;20203;-68
2021/07/30 01:17:34;;;;;;;17.05;7.25;;;16.40;99.80;;;;;;5007051;28;20208;-68
2021/07/30 01:20:01;;;;;;;20.38;7.28;;;16.30;99.80;;;;;;5013267;28;20215;-68
2021/07/30 01:22:31;;;;;;;20.77;7.05;;;16.30;99.90;;;;;;5011096;28;20204;-67
2021/07/30 01:24:59;;;;;;;20.17;6.75;;;16.30;99.90;;;;;;5010783;28;20220;-67
2021/07/30 01:27:26;;;;;;;18.25;7.07;;;16.20;99.90;;;;;;5011755;28;20215;-67
2021/07/30 01:29:53;;;;;;;19.65;7.13;;;16.20;99.90;;;;;;5010802;28;20209;-67
2021/07/30 01:32:20;;;;;;;19.17;6.95;;;16.20;99.90;;;;;;5011269;28;20259;-67
2021/07/30 01:34:48;;;;;;;20.30;6.97;;;16.20;99.90;;;;;;5012065;28;20205;-68
2021/07/30 01:37:15;;;;;;;19.20;6.15;;;16.10;99.90;;;;;;5011014;28;20204;-68
2021/07/30 01:39:42;;;;;;;22.92;7.07;;;16.10;99.90;;;;;;4991785;28;20629;-69
2021/07/30 01:42:10;;;;;;;24.27;6.57;;;16.10;99.90;;;;;;5010939;28;20213;-69
2021/07/30 01:44:37;;;;;;;22.00;7.03;;;16.10;99.90;;;;;;5010732;28;20224;-68
2021/07/30 01:47:04;;;;;;;25.05;7.88;;;16.10;99.90;;;;;;5012241;28;20200;-70
2021/07/30 01:49:31;;;;;;;21.55;6.93;;;16.00;99.90;;;;;;4992691;28;20217;-67
2021/07/30 01:51:58;;;;;;;19.00;6.95;;;16.00;99.90;;;;;;5010143;28;20665;-69
2021/07/30 01:54:25;;;;;;;18.60;6.95;;;16.00;99.90;;;;;;5012642;28;20208;-69
2021/07/30 01:56:51;;;;;;;16.98;7.15;;;16.00;99.90;;;;;;5012676;28;20209;-69
2021/07/30 01:59:20;;;;;;;15.23;6.95;;;15.90;99.90;;;;;;5011076;28;20201;-70
2021/07/30 02:01:46;;;;;;;18.55;6.85;;;15.90;99.90;;;;;;5009115;28;20208;-69
2021/07/30 02:04:13;;;;;;;18.55;7.20;;;15.90;99.90;;;;;;5011625;28;20204;-70
2021/07/30 02:06:43;;;;;;;17.80;8.18;;;15.90;99.90;;;;;;5012451;28;20601;-70
2021/07/30 02:09:10;;;;;;;17.40;7.53;;;15.80;99.90;;;;;;5009351;28;20216;-69
2021/07/30 02:11:37;;;;;;;21.45;7.95;;;15.80;99.90;;;;;;5011556;28;20257;-67
2021/07/30 02:14:16;;;;;;;23.83;8.30;;;15.80;99.90;;;;;;5007982;28;20211;-69
2021/07/30 02:16:45;;;;;;;18.30;7.63;;;15.80;99.90;;;;;;5011223;28;20314;-67
2021/07/30 02:19:12;;;;;;;14.55;7.13;;;15.70;99.90;;;;;;5010529;28;20215;-67
2021/07/30 02:21:39;;;;;;;18.65;7.63;;;15.70;99.90;;;;;;5013109;28;20200;-69
2021/07/30 02:24:06;;;;;;;20.35;7.53;;;15.70;99.90;;;;;;5012128;28;20590;-67
2021/07/30 02:26:33;;;;;;;16.80;7.15;;;15.70;99.90;;;;;;5011518;28;20225;-67
2021/07/30 02:29:00;;;;;;;22.05;7.88;;;15.70;99.90;;;;;;5009853;28;20214;-67
2021/07/30 02:31:27;;;;;;;18.73;7.88;;;15.70;99.90;;;;;;5010168;28;20707;-69
2021/07/30 02:33:55;;;;;;;17.08;7.90;;;15.70;99.90;;;;;;5010530;28;20227;-68
2021/07/30 02:36:22;;;;;;;16.20;7.63;;;15.70;99.90;;;;;;5010755;28;20212;-69
2021/07/30 02:38:49;;;;;;;13.35;7.93;;;15.60;99.90;;;;;;5009619;28;20208;-69
2021/07/30 02:41:17;;;;;;;20.40;7.82;;;15.60;99.90;;;;;;5010151;28;20196;-69
2021/07/30 02:43:44;;;;;;;22.40;7.88;;;15.60;99.90;;;;;;5011369;28;20208;-67
2021/07/30 02:46:11;;;;;;;20.55;7.97;;;15.60;99.90;;;;;;5010779;28;20278;-69
2021/07/30 02:48:38;;;;;;;17.50;7.72;;;15.60;99.90;;;;;;5010433;28;20224;-69
2021/07/30 02:51:07;;;;;;;15.48;7.43;;;15.60;99.90;;;;;;5011712;28;20935;-68
2021/07/30 02:53:33;;;;;;;22.05;8.20;;;15.50;99.90;;;;;;4993487;28;20208;-68
2021/07/30 02:56:00;;;;;;;16.80;7.97;;;15.50;99.90;;;;;;4993276;28;20215;-70
2021/07/30 02:58:27;;;;;;;18.17;7.70;;;15.50;99.90;;;;;;5007717;28;20201;-69
2021/07/30 03:00:54;;;;;;;18.23;7.57;;;15.50;99.90;;;;;;5009686;28;21117;-68
2021/07/30 03:03:21;;;;;;;16.73;7.53;;;15.50;99.90;;;;;;5012871;28;20204;-69
2021/07/30 03:05:47;;;;;;;18.38;7.53;;;15.50;99.90;;;;;;5014090;28;20219;-68
2021/07/30 03:08:15;;;;;;;18.70;7.90;;;15.40;99.90;;;;;;5012519;28;20200;-67
2021/07/30 03:10:42;;;;;;;17.38;7.70;;;15.40;99.90;;;;;;5010655;28;20270;-68
2021/07/30 03:13:09;;;;;;;18.10;7.68;;;15.50;99.90;;;;;;5008421;28;20263;-69
2021/07/30 03:15:36;;;;;;;17.10;7.18;;;15.40;99.90;;;;;;5008317;28;20211;-67
2021/07/30 03:18:03;;;;;;;20.63;7.88;;;15.40;99.90;;;;;;5009054;28;20212;-68
2021/07/30 03:20:30;;;;;;;18.55;7.07;;;15.40;99.90;;;;;;5004895;28;20201;-67
2021/07/30 03:22:56;;;;;;;20.30;7.28;;;15.40;99.90;;;;;;5010308;28;20899;-70
2021/07/30 03:25:25;;;;;;;20.55;6.95;;;15.50;99.90;;;;;;5010321;28;20222;-68
2021/07/30 03:27:51;;;;;;;22.77;7.65;;;15.40;99.90;;;;;;5008431;28;20226;-69
2021/07/30 03:30:18;;;;;;;16.70;7.40;;;15.40;99.90;;;;;;5009125;28;20213;-69
2021/07/30 03:32:45;;;;;;;17.35;7.07;;;15.40;99.90;;;;;;5008808;28;20570;-69
2021/07/30 03:35:12;;;;;;;17.77;7.32;;;15.40;99.90;;;;;;5011064;28;20207;-69
2021/07/30 03:37:39;;;;;;;21.75;7.43;;;15.40;99.90;;;;;;5009707;28;20204;-70
2021/07/30 03:40:07;;;;;;;15.20;7.05;;;15.40;99.90;;;;;;5009862;28;20232;-70
2021/07/30 03:42:35;;;;;;;23.17;7.55;;;15.40;99.90;;;;;;5004486;28;20205;-68
2021/07/30 03:45:02;;;;;;;19.05;7.25;;;15.40;99.90;;;;;;4999682;28;20212;-69
2021/07/30 03:47:29;;;;;;;16.00;7.35;;;15.40;99.90;;;;;;5007897;28;20200;-70
2021/07/30 03:49:55;;;;;;;17.48;6.88;;;15.40;99.90;;;;;;5007990;28;20368;-69
2021/07/30 03:52:22;;;;;;;17.80;7.38;;;15.40;99.90;;;;;;5008985;28;20206;-70
2021/07/30 03:54:49;;;;;;;19.83;6.85;;;15.40;99.90;;;;;;5010144;28;20998;-68
2021/07/30 03:57:16;;;;;;;21.83;7.15;;;15.30;99.90;;;;;;5009184;28;20230;-68
2021/07/30 03:59:44;;;;;;;13.07;6.82;;;15.30;99.90;;;;;;5012001;28;20645;-69
2021/07/30 04:02:10;;;;;;;16.88;6.93;;;15.30;99.90;;;;;;5005608;28;20201;-69
2021/07/30 04:04:37;;;;;;;20.00;6.95;;;15.30;99.90;;;;;;4988732;28;20236;-69
2021/07/30 04:07:04;;;;;;;21.15;7.10;;;15.30;99.90;;;;;;5009351;28;20224;-72
2021/07/30 04:09:31;;;;;;;21.42;7.22;;;15.30;99.90;;;;;;5006021;28;20200;-69
2021/07/30 04:11:58;;;;;;;22.42;7.65;;;15.30;99.90;;;;;;5000813;28;20212;-69
2021/07/30 04:14:25;;;;;;;15.60;7.65;;;15.30;99.90;;;;;;4998422;28;20279;-71
2021/07/30 04:16:53;;;;;;;19.35;7.28;;;15.30;99.90;;;;;;4999421;28;21192;-71
2021/07/30 04:19:20;;;;;;;19.42;7.72;;;15.30;99.90;;;;;;5001822;28;20688;-69
2021/07/30 04:21:49;;;;;;;18.10;7.53;;;15.30;99.90;;;;;;4995386;28;20204;-71
2021/07/30 04:24:16;;;;;;;20.55;7.13;;;15.30;99.90;;;;;;5002814;28;20201;-69
2021/07/30 04:26:43;;;;;;;26.50;7.60;;;15.30;99.90;;;;;;5005958;28;20243;-72
2021/07/30 04:29:10;;;;;;;20.60;7.30;;;15.40;99.90;;;;;;5005435;28;20212;-70
2021/07/30 04:31:39;;;;;;;18.35;7.32;;;15.40;99.90;;;;;;5003039;28;20208;-70
2021/07/30 04:34:07;;;;;;;18.13;7.80;;;15.50;99.90;;;;;;4999558;28;20204;-70
2021/07/30 04:36:33;;;;;;;25.10;7.53;;;15.50;99.90;;;;;;5006556;28;20589;-70
2021/07/30 04:39:00;;;;;;;26.58;8.15;;;15.50;99.90;;;;;;5007701;28;20617;-68
2021/07/30 04:41:27;;;;;;;18.25;7.55;;;15.60;99.90;;;;;;5007880;28;20716;-72
2021/07/30 04:43:54;;;;;;;20.02;7.50;;;15.60;99.90;;;;;;5006273;28;20212;-71
2021/07/30 04:46:21;;;;;;;18.15;7.22;;;15.60;99.90;;;;;;5003517;28;20252;-70
2021/07/30 04:48:47;;;;;;;18.15;6.95;;;15.70;99.90;;;;;;5007307;28;20216;-70
2021/07/30 04:51:16;;;;;;;17.00;7.30;;;15.70;99.90;;;;;;5003049;28;20236;-70
2021/07/30 04:53:43;;;;;;;23.83;7.85;;;15.70;99.90;;;;;;5007448;28;20296;-71
2021/07/30 04:56:17;;;;;;;21.80;7.18;;;15.80;99.90;;;;;;5008582;28;20215;-71
2021/07/30 04:58:44;;;;;;;17.05;6.90;;;15.80;99.90;;;;;;5008238;28;20227;-70
2021/07/30 05:01:11;;;;;;;17.58;7.35;;;15.80;99.90;;;;;;5006192;28;22767;-70
2021/07/30 05:03:38;;;;;;;19.92;7.40;;;15.80;99.90;;;;;;5006401;28;20211;-69
2021/07/30 05:06:12;;;;;;;17.98;7.38;;;15.80;99.90;;;;;;5006605;28;20216;-68
2021/07/30 05:08:41;;;;;;;17.95;7.43;;;15.80;99.90;;;;;;4990364;28;20195;-68
2021/07/30 05:11:10;;;;;;;23.02;7.70;;;15.90;99.90;;;;;;5007767;28;20215;-68
2021/07/30 05:13:37;;;;;;;14.98;6.78;;;15.90;99.90;;;;;;5004209;28;20215;-69
2021/07/30 05:16:06;;;;;;;18.05;7.50;;;15.90;99.90;;;;;;5012084;28;21742;-70
2021/07/30 05:18:33;;;;;;;19.65;7.25;;;16.00;99.90;;;;;;5012945;28;20287;-70
2021/07/30 05:21:00;;;;;;;15.68;6.60;;;16.00;99.90;;;;;;5011755;28;20193;-70
2021/07/30 05:23:27;;;;;;;19.17;7.10;;;16.00;99.90;;;;;;4993787;28;20240;-70
2021/07/30 05:25:56;;;;;;;24.20;7.63;;;16.00;99.90;;;;;;5012711;28;20219;-69
2021/07/30 05:28:22;;;;;;;23.55;7.22;;;16.10;99.90;;;;;;5011108;28;20201;-70
2021/07/30 05:30:49;;;;;;;19.77;7.50;;;16.10;99.90;;;;;;5014356;28;20208;-69
2021/07/30 05:33:16;;;;;;;22.40;7.30;;;16.10;99.90;;;;;;5010735;28;20564;-70
2021/07/30 05:35:43;;;;;;;17.60;7.22;;;16.10;99.90;;;;;;5009777;28;20223;-69
2021/07/30 05:38:10;;;;;;;20.10;7.35;;;16.10;99.90;;;;;;4993031;28;20664;-72
2021/07/30 05:40:36;;;;;;;13.93;6.95;;;16.10;99.90;;;;;;5010440;28;20583;-70
2021/07/30 05:43:05;;;;;;;20.13;6.97;;;16.20;99.90;;;;;;5011856;28;20215;-72
2021/07/30 05:45:32;;;;;;;20.10;6.97;;;16.20;99.90;;;;;;5009301;28;20207;-71
2021/07/30 05:47:58;;;;;;;21.55;7.10;;;16.20;99.90;;;;;;5007229;28;20209;-70
2021/07/30 05:50:25;;;;;;;19.75;7.90;;;16.20;99.90;;;;;;5011691;28;20228;-71
2021/07/30 05:52:52;;;;;;;19.50;7.22;;;16.30;99.90;;;;;;5007733;28;20593;-68
2021/07/30 05:55:19;;;;;;;20.50;7.03;;;16.30;99.90;;;;;;5011699;28;20283;-70
2021/07/30 05:57:46;;;;;;;18.83;7.57;;;16.30;99.90;;;;;;5007846;28;20539;-70
2021/07/30 06:00:15;;;;;;;21.02;6.97;;;16.40;99.90;;;;;;5010188;28;20212;-75
2021/07/30 06:02:42;;;;;;;22.08;7.70;;;16.40;99.90;;;;;;5008660;28;20209;-70
2021/07/30 06:05:09;;;;;;;17.27;6.70;;;16.50;99.90;;;;;;5009607;28;21010;-68
2021/07/30 06:07:36;;;;;;;22.20;7.70;;;16.50;99.90;;;;;;4996949;28;20228;-67
2021/07/30 06:10:04;;;;;;;23.33;7.18;;;16.60;99.90;;;;;;5011324;28;20189;-66
2021/07/30 06:12:30;;;;;;;17.75;7.40;;;16.60;99.90;;;;;;5010307;28;20189;-67
2021/07/30 06:14:57;;;;;;;19.85;7.55;;;16.60;99.90;;;;;;5010527;28;20695;-67
2021/07/30 06:17:25;;;;;;;17.98;6.95;;;16.60;99.90;;;;;;5006944;28;20196;-68
2021/07/30 06:19:53;;;;;;;19.55;7.53;;;16.60;99.90;;;;;;5014145;28;20653;-67
2021/07/30 06:22:20;;;;;;;16.05;7.72;;;16.70;99.90;;;;;;5007921;28;20243;-66
2021/07/30 06:24:47;;;;;;;18.05;7.40;;;16.70;99.90;;;;;;5011759;28;20243;-67
2021/07/30 06:27:15;;;;;;;23.77;7.97;;;16.70;99.90;;;;;;5005357;28;20224;-68
2021/07/30 06:29:42;;;;;;;18.45;7.18;;;16.70;99.90;;;;;;5005915;28;20784;-67
2021/07/30 06:32:09;;;;;;;18.98;7.70;;;16.80;99.90;;;;;;5010361;28;20235;-67
2021/07/30 06:34:37;;;;;;;21.58;7.55;;;16.80;99.90;;;;;;5009813;28;20201;-68
2021/07/30 06:37:05;;;;;;;19.83;7.85;;;16.80;99.90;;;;;;5006119;28;20203;-68
2021/07/30 06:39:31;;;;;;;16.42;7.47;;;16.80;99.90;;;;;;5010722;28;20232;-71
2021/07/30 06:41:58;;;;;;;21.40;6.60;;;16.90;99.90;;;;;;4992205;28;20211;-69
2021/07/30 06:44:25;;;;;;;17.88;7.63;;;16.90;99.90;;;;;;4988396;28;20270;-68
2021/07/30 06:46:52;;;;;;;16.50;7.40;;;16.90;99.90;;;;;;5005457;28;20224;-67
2021/07/30 06:49:18;;;;;;;19.27;6.90;;;16.90;99.90;;;;;;5005431;28;20209;-67
2021/07/30 06:51:47;;;;;;;19.77;7.38;;;17.00;99.90;;;;;;5004091;28;20277;-68
2021/07/30 06:54:13;;;;;;;12.73;6.45;;;17.10;99.90;;;;;;5010095;28;20207;-67
2021/07/30 06:56:44;;;;;;;16.73;7.15;;;17.10;99.90;;;;;;5012047;28;20258;-69
2021/07/30 06:59:11;;;;;;;19.30;7.10;;;17.10;99.90;;;;;;5009925;28;20205;-69
2021/07/30 07:01:38;;;;;;;15.13;6.20;;;17.20;99.90;;;;;;5008762;28;20212;-69
2021/07/30 07:04:05;;;;;;;16.25;6.45;;;17.30;99.90;;;;;;5001181;28;20615;-69
2021/07/30 07:06:32;;;;;;;14.77;6.28;;;17.40;99.90;;;;;;5009750;28;20204;-69
2021/07/30 07:09:00;;;;;;;17.50;6.20;;;17.50;99.90;;;;;;5010556;28;20207;-69
2021/07/30 07:11:26;;;;;;;16.27;6.50;;;17.50;99.90;;;;;;5012342;28;20779;-70
2021/07/30 07:13:53;;;;;;;15.90;5.47;;;17.70;99.90;;;;;;5010346;28;21034;-69
2021/07/30 07:16:20;;;;;;;14.18;5.53;;;17.80;99.50;;;;;;5012608;28;20211;-70
2021/07/30 07:18:47;;;;;;;16.75;5.78;;;17.90;99.20;;;;;;5012999;28;20247;-70
2021/07/30 07:21:14;;;;;;;15.65;6.35;;;17.90;98.80;;;;;;5008514;28;20205;-70
2021/07/30 07:23:41;;;;;;;11.52;5.20;;;18.10;98.40;;;;;;5012028;28;20196;-69
2021/07/30 07:26:09;;;;;;;15.98;5.50;;;18.10;98.00;;;;;;4993817;28;20627;-70
2021/07/30 07:28:36;;;;;;;13.95;5.43;;;18.20;97.70;;;;;;5008296;28;20203;-69
2021/07/30 07:31:03;;;;;;;12.73;5.30;;;18.30;97.40;;;;;;5010401;28;20196;-69
2021/07/30 07:33:30;;;;;;;14.75;5.20;;;18.30;97.10;;;;;;5008433;28;21396;-70
2021/07/30 07:35:56;;;;;;;13.40;5.10;;;18.40;96.60;;;;;;5011062;28;20208;-70
2021/07/30 07:38:24;;;;;;;16.02;5.00;;;18.40;96.10;;;;;;5010105;28;20205;-69
2021/07/30 07:40:54;;;;;;;8.98;4.43;;;18.40;95.70;;;;;;5011741;28;20680;-68
2021/07/30 07:43:22;;;;;;;11.07;4.78;;;18.40;95.40;;;;;;5004023;28;20211;-69
2021/07/30 07:45:50;;;;;;;9.88;4.50;;;18.50;95.20;;;;;;5012189;28;21833;-69
2021/07/30 07:48:17;;;;;;;11.68;4.88;;;18.50;95.10;;;;;;5007897;28;20688;-70
2021/07/30 07:50:44;;;;;;;11.55;4.72;;;18.50;94.80;;;;;;5010433;28;20583;-73
2021/07/30 07:53:15;;;;;;;11.27;5.30;;;18.50;94.70;;;;;;5012363;28;20208;-70
2021/07/30 07:55:42;;;;;;;10.77;4.78;;;18.50;94.60;;;;;;5006782;28;20215;-71
2021/07/30 07:58:09;;;;;;;11.98;4.38;;;18.50;94.50;;;;;;5009434;28;20193;-69
2021/07/30 08:00:38;;;;;;;12.73;4.85;;;18.60;94.60;;;;;;5003927;28;20212;-69
2021/07/30 08:03:05;;;;;;;11.13;4.50;;;18.60;94.40;;;;;;5015411;28;20290;-69
2021/07/30 08:05:31;;;;;;;15.45;4.68;;;18.70;94.20;;;;;;4991909;28;20654;-69
2021/07/30 08:07:58;;;;;;;14.05;4.88;;;18.70;94.00;;;;;;4987923;28;20680;-69
2021/07/30 08:10:25;;;;;;;12.73;4.90;;;18.80;93.90;;;;;;5011629;28;20612;-69
2021/07/30 08:12:52;;;;;;;9.98;4.72;;;18.90;93.70;;;;;;5018750;28;20204;-69
2021/07/30 08:15:19;;;;;;;11.68;4.43;;;19.00;93.40;;;;;;5013233;28;20217;-69
2021/07/30 08:17:47;;;;;;;12.65;4.43;;;19.10;93.20;;;;;;5016903;28;20250;-69
2021/07/30 08:20:15;;;;;;;14.55;4.47;;;19.20;92.70;;;;;;5014012;28;20209;-69
2021/07/30 08:22:43;;;;;;;10.52;4.40;;;19.20;92.40;;;;;;5006641;28;20209;-69
2021/07/30 08:25:11;;;;;;;14.43;4.75;;;19.20;92.20;;;;;;5009911;28;20223;-69
2021/07/30 08:27:38;;;;;;;10.75;4.47;;;19.20;92.00;;;;;;5008004;28;20228;-69
2021/07/30 08:30:06;;;;;;;9.25;3.95;;;19.20;91.90;;;;;;4994268;28;20219;-71
2021/07/30 08:32:33;;;;;;;11.15;4.18;;;19.30;91.90;;;;;;4995147;28;20689;-71
2021/07/30 08:35:02;;;;;;;11.63;4.70;;;19.30;91.90;;;;;;5009962;28;20210;-71
2021/07/30 08:37:28;;;;;;;10.43;4.15;;;19.40;91.90;;;;;;5010128;28;20676;-71
2021/07/30 08:39:55;;;;;;;13.52;4.05;;;19.50;91.90;;;;;;5009955;28;20209;-71
2021/07/30 08:42:22;;;;;;;10.13;4.70;;;19.50;91.70;;;;;;5007677;28;20215;-70
2021/07/30 08:44:49;;;;;;;13.13;4.65;;;19.60;91.60;;;;;;5009237;28;20259;-70
2021/07/30 08:47:20;;;;;;;11.18;4.80;;;19.50;91.60;;;;;;5010058;28;20273;-70
2021/07/30 08:49:47;;;;;;;13.73;4.63;;;19.60;91.60;;;;;;5010775;28;20228;-69
2021/07/30 08:52:17;;;;;;;11.13;5.03;;;19.60;91.60;;;;;;5015775;28;20648;-70
2021/07/30 08:54:44;;;;;;;10.45;4.70;;;19.70;91.70;;;;;;5015881;28;20200;-69
2021/07/30 08:57:12;;;;;;;11.75;4.53;;;19.80;91.80;;;;;;5017155;28;20675;-70
2021/07/30 08:59:39;;;;;;;11.35;4.75;;;19.80;91.70;;;;;;5015900;28;20609;-69
2021/07/30 09:02:06;;;;;;;12.57;4.93;;;20.00;91.90;;;;;;5011978;28;20228;-70
2021/07/30 09:04:34;;;;;;;13.57;4.78;;;20.20;91.90;;;;;;5000975;28;20220;-70
2021/07/30 09:07:02;;;;;;;11.32;4.72;;;20.30;91.80;;;;;;5014008;28;20215;-69
2021/07/30 09:09:33;;;;;;;11.80;4.63;;;20.40;91.60;;;;;;5015279;28;20251;-69
2021/07/30 09:12:03;;;;;;;12.38;4.50;;;20.60;91.50;;;;;;5013766;28;20781;-68
2021/07/30 09:14:36;;;;;;;11.63;4.70;;;20.80;91.30;;;;;;5012898;28;21404;-68
2021/07/30 09:17:03;;;;;;;13.20;4.80;;;21.20;91.40;;;;;;5014976;28;20215;-68
2021/07/30 09:19:30;;;;;;;14.02;4.35;;;21.60;91.00;;;;;;5014631;28;20208;-68
2021/07/30 09:22:06;;;;;;;13.02;4.65;;;21.80;90.60;;;;;;4996245;28;20204;-68
2021/07/30 09:24:37;;;;;;;15.27;4.30;;;22.10;90.20;;;;;;4992982;28;20247;-68
2021/07/30 09:27:05;;;;;;;10.30;4.30;;;22.50;89.20;;;;;;5011918;28;20220;-67
2021/07/30 09:29:33;;;;;;;9.35;4.15;;;22.60;87.50;;;;;;5011164;28;20193;-68
2021/07/30 09:32:03;;;;;;;11.30;3.97;;;22.60;86.10;;;;;;5011367;28;20675;-68
2021/07/30 09:34:36;;;;;;;10.38;4.18;;;22.60;85.50;;;;;;5011187;28;20623;-69
2021/07/30 09:37:04;;;;;;;12.80;4.57;;;22.50;85.00;;;;;;5010891;28;20207;-68
2021/07/30 09:39:45;;;;;;;10.93;4.20;;;22.40;85.30;;;;;;5011689;28;20201;-69
2021/07/30 09:42:13;;;;;;;9.23;4.53;;;22.30;85.00;;;;;;5011748;28;20539;-68
2021/07/30 09:44:48;;;;;;;8.60;4.35;;;22.30;85.50;;;;;;5010663;28;20200;-69
2021/07/30 09:47:16;;;;;;;11.77;4.63;;;22.30;85.10;;;;;;5011883;28;20218;-69
2021/07/30 09:49:52;;;;;;;12.65;4.60;;;22.20;85.30;;;;;;5006557;28;20560;-70
2021/07/30 09:52:21;;;;;;;12.35;4.97;;;22.30;85.60;;;;;;5011248;28;20274;-68
2021/07/30 09:54:57;;;;;;;11.38;4.40;;;22.30;85.90;;;;;;5012011;28;20205;-68
2021/07/30 09:57:25;;;;;;;11.27;4.43;;;22.40;85.50;;;;;;5011796;28;20209;-69
2021/07/30 09:59:54;;;;;;;11.13;4.40;;;22.80;85.10;;;;;;4993847;28;20212;-70
2021/07/30 10:02:22;;;;;;;19.40;4.82;;;23.30;83.40;;;;;;5009667;28;20204;-70
2021/07/30 10:04:51;;;;;;;10.27;4.50;;;23.70;81.80;;;;;;5013334;28;20212;-69
2021/07/30 10:07:20;;;;;;;9.10;4.57;;;24.20;80.80;;;;;;5011828;28;21006;-70
2021/07/30 10:09:52;;;;;;;10.50;4.10;;;24.70;78.90;;;;;;5011122;28;20564;-70
2021/07/30 10:12:20;;;;;;;14.32;4.60;;;25.00;77.10;;;;;;5010246;28;20197;-69
2021/07/30 10:14:48;;;;;;;10.98;4.68;;;25.30;76.50;;;;;;5011818;28;20300;-70
2021/07/30 10:17:16;;;;;;;10.57;4.57;;;25.40;74.70;;;;;;4991586;28;20235;-69
2021/07/30 10:19:45;;;;;;;10.13;4.07;;;25.60;73.00;;;;;;5012879;28;20262;-70
2021/07/30 10:22:15;;;;;;;14.07;4.20;;;25.60;71.40;;;;;;5010766;28;21825;-70
2021/07/30 10:24:52;;;;;;;9.70;3.80;;;25.60;70.80;;;;;;5015261;28;20657;-70
2021/07/30 10:27:23;;;;;;;9.90;3.83;;;25.50;69.80;;;;;;5008847;28;20564;-70
2021/07/30 10:30:11;;;;;;;9.35;4.03;;;25.40;70.60;;;;;;5008393;28;20212;-70
2021/07/30 10:32:49;;;;;;;9.93;3.58;;;25.40;70.60;;;;;;5010148;28;20205;-70
2021/07/30 10:35:18;;;;;;;7.75;4.13;;;25.40;70.70;;;;;;5011965;28;20254;-70
2021/07/30 10:37:46;;;;;;;12.40;4.10;;;25.40;71.20;;;;;;5010572;28;20679;-70
2021/07/30 10:40:18;;;;;;;8.60;4.30;;;25.60;70.60;;;;;;5010446;28;20291;-69
2021/07/30 10:43:04;;;;;;;8.48;3.67;;;25.80;70.00;;;;;;5011086;28;20534;-69
2021/07/30 10:45:31;;;;;;;11.15;4.03;;;26.00;69.40;;;;;;5008713;28;20207;-72
2021/07/30 10:48:35;;;;;;;7.40;4.10;;;26.20;68.30;;;;;;5010834;28;20204;-70
2021/07/30 10:51:04;;;;;;;9.60;4.10;;;26.40;66.80;;;;;;5009809;28;20732;-69
2021/07/30 10:53:49;;;;;;;9.32;4.50;;;26.50;66.50;;;;;;5013433;28;20216;-69
2021/07/30 10:56:40;;;;;;;9.07;4.68;;;26.60;65.80;;;;;;5012387;28;20622;-70
2021/07/30 10:59:08;;;;;;;9.85;4.18;;;26.50;65.20;;;;;;5005191;28;20700;-70
2021/07/30 11:02:09;;;;;;;8.68;4.35;;;26.30;65.20;;;;;;5003270;28;20216;-70
2021/07/30 11:04:36;;;;;;;11.65;4.57;;;26.10;65.80;;;;;;4927807;29;20231;-69
2021/07/30 11:07:04;;;;;;;9.27;5.00;;;25.90;66.20;;;;;;4929471;29;20213;-69
2021/07/30 11:09:41;;;;;;;8.07;4.40;;;25.70;66.70;;;;;;4966207;28;20286;-69
2021/07/30 11:12:16;;;;;;;13.05;4.80;;;25.40;67.40;;;;;;5010474;28;20660;-67
2021/07/30 11:14:48;;;;;;;11.82;4.65;;;25.30;68.10;;;;;;5008905;28;20212;-68
2021/07/30 11:17:15;;;;;;;8.85;3.97;;;25.10;68.40;;;;;;5008590;28;20209;-67
2021/07/30 11:19:44;;;;;;;9.93;4.07;;;24.80;69.40;;;;;;5007533;28;20204;-67
2021/07/30 11:22:13;;;;;;;9.02;4.53;;;24.60;70.00;;;;;;5008135;28;21667;-67
2021/07/30 11:24:42;;;;;;;13.00;5.20;;;24.40;70.40;;;;;;5010537;28;20259;-67
2021/07/30 11:27:10;;;;;;;7.70;4.97;;;24.10;73.40;;;;;;5010678;28;20719;-69
2021/07/30 11:29:37;;;;;;;14.15;4.03;;;23.80;75.40;;;;;;5011669;28;20216;-66
2021/07/30 11:32:07;;;;;;;7.22;4.20;;;23.40;76.60;;;;;;5011565;28;20696;-67
2021/07/30 11:34:36;;;;;;;6.05;4.32;;;23.00;78.60;;;;;;5008767;28;20580;-68
2021/07/30 11:37:05;;;;;;;9.00;4.80;;;22.70;80.40;;;;;;5008503;28;20262;-69
2021/07/30 11:39:34;;;;;;;9.43;4.60;;;22.50;82.40;;;;;;5009379;28;20193;-69
2021/07/30 11:42:01;;;;;;;9.13;4.95;;;22.30;83.00;;;;;;5007718;28;20205;-69
2021/07/30 11:44:28;;;;;;;14.40;5.55;;;22.20;83.50;;;;;;5009492;28;20271;-69
2021/07/30 11:46:57;;;;;;;11.32;4.95;;;22.20;84.20;;;;;;5008369;28;20665;-68
2021/07/30 11:49:44;;;;;;;10.35;4.82;;;22.20;84.50;;;;;;5010224;28;20283;-67
2021/07/30 11:52:18;;;;;;;11.77;6.05;;;22.20;85.90;;;;;;5010830;28;20525;-71
2021/07/30 11:54:45;;;;;;;9.43;6.03;;;22.10;86.30;;;;;;5005593;28;20264;-70
2021/07/30 11:57:12;;;;;;;12.55;6.30;;;21.90;86.70;;;;;;5009122;28;20215;-70
2021/07/30 11:59:46;;;;;;;13.05;6.72;;;21.80;87.80;;;;;;5010943;28;20196;-69
2021/07/30 12:02:15;;;;;;;9.13;6.15;;;21.80;89.40;;;;;;5008395;28;20199;-69
2021/07/30 12:04:54;;;;;;;9.77;7.15;;;21.80;90.10;;;;;;5003447;28;20208;-69
2021/07/30 12:07:22;;;;;;;14.45;6.63;;;21.70;90.20;;;;;;5007667;28;20215;-69
2021/07/30 12:09:53;;;;;;;8.75;6.60;;;21.70;90.50;;;;;;5005594;28;20628;-70
2021/07/30 12:12:21;;;;;;;12.65;6.85;;;21.60;90.70;;;;;;5010663;28;20571;-69
2021/07/30 12:14:49;;;;;;;11.98;6.95;;;21.60;90.80;;;;;;5009930;28;20660;-69
2021/07/30 12:17:17;;;;;;;12.20;7.32;;;21.50;91.00;;;;;;5008711;28;20283;-69
2021/07/30 12:19:44;;;;;;;8.55;6.82;;;21.50;91.20;;;;;;5007870;28;20306;-69
2021/07/30 12:22:12;;;;;;;11.52;7.65;;;21.50;91.40;;;;;;5009879;28;20200;-68
2021/07/30 12:24:50;;;;;;;13.50;7.40;;;21.40;91.50;;;;;;5009506;28;20204;-68
2021/07/30 12:27:18;;;;;;;13.80;7.80;;;21.40;91.60;;;;;;5011689;28;20212;-69
2021/07/30 12:29:46;;;;;;;17.63;8.10;;;21.40;91.80;;;;;;5011830;28;20275;-68
2021/07/30 12:32:16;;;;;;;9.77;6.90;;;21.40;91.90;;;;;;5011072;28;20204;-69
2021/07/30 12:34:58;;;;;;;12.65;7.40;;;21.40;92.00;;;;;;5013575;28;20636;-70
2021/07/30 12:37:27;;;;;;;10.55;7.18;;;21.40;92.00;;;;;;5012536;28;20263;-69
2021/07/30 12:39:56;;;;;;;22.42;7.50;;;21.30;92.00;;;;;;5013107;28;20197;-69
2021/07/30 12:42:25;;;;;;;10.38;7.32;;;21.30;92.10;;;;;;5014835;28;20262;-68
2021/07/30 12:45:12;;;;;;;9.68;8.05;;;21.30;92.20;;;;;;5012845;28;20515;-70